createdAt,value
2018-11-26T00:00:44.594Z,4.80
2018-11-26T00:03:47.666Z,4.80
2018-11-26T00:06:50.756Z,4.80
2018-11-26T00:10:04.125Z,4.70
2018-11-26T00:13:07.215Z,4.70
2018-11-26T00:16:10.274Z,4.80
2018-11-26T00:19:13.350Z,4.80
2018-11-26T00:22:16.437Z,4.80
2018-11-26T00:25:19.513Z,4.90
2018-11-26T00:28:22.594Z,4.80
2018-11-26T00:31:25.652Z,4.90
2018-11-26T00:34:28.714Z,4.90
2018-11-26T00:37:31.785Z,5.00
2018-11-26T00:40:34.861Z,4.90
2018-11-26T00:43:37.916Z,4.90
2018-11-26T00:46:40.985Z,4.90
2018-11-26T00:49:44.066Z,4.90
2018-11-26T00:52:47.151Z,5.00
2018-11-26T00:55:50.245Z,5.00
2018-11-26T00:58:53.375Z,4.90
2018-11-26T01:01:56.454Z,5.00
2018-11-26T01:04:59.535Z,4.90
2018-11-26T01:08:02.613Z,4.90
2018-11-26T01:11:06.326Z,4.90
2018-11-26T01:14:09.384Z,4.90
2018-11-26T01:17:12.469Z,4.90
2018-11-26T01:20:15.542Z,5.00
2018-11-26T01:23:18.623Z,5.00
2018-11-26T01:26:21.695Z,4.90
2018-11-26T01:29:24.774Z,5.00
2018-11-26T01:32:27.866Z,5.00
2018-11-26T01:35:30.913Z,4.90
2018-11-26T01:38:33.990Z,4.90
2018-11-26T01:41:37.054Z,4.90
2018-11-26T01:44:40.170Z,4.90
2018-11-26T01:47:43.231Z,4.90
2018-11-26T01:50:46.320Z,4.90
2018-11-26T01:53:49.366Z,4.80
2018-11-26T01:56:52.444Z,4.90
2018-11-26T01:59:55.511Z,4.90
2018-11-26T02:02:58.580Z,4.80
2018-11-26T02:06:01.674Z,4.70
2018-11-26T02:09:05.230Z,4.70
2018-11-26T02:12:08.398Z,4.80
2018-11-26T02:15:24.714Z,4.70
2018-11-26T02:18:27.791Z,4.70
2018-11-26T02:21:30.887Z,4.60
2018-11-26T02:24:34.003Z,4.60
2018-11-26T02:27:37.065Z,4.60
2018-11-26T02:30:40.143Z,4.60
2018-11-26T02:33:43.226Z,4.60
2018-11-26T02:36:46.305Z,4.60
2018-11-26T02:39:49.395Z,4.60
2018-11-26T02:42:52.535Z,4.60
2018-11-26T02:45:55.620Z,4.60
2018-11-26T02:48:58.700Z,4.70
2018-11-26T02:52:01.751Z,4.70
2018-11-26T02:55:05.339Z,4.60
2018-11-26T02:58:08.431Z,4.60
2018-11-26T03:01:11.512Z,4.60
2018-11-26T03:04:15.694Z,4.60
2018-11-26T03:07:18.775Z,4.60
2018-11-26T03:10:22.139Z,4.60
2018-11-26T03:13:25.210Z,4.60
2018-11-26T03:16:28.298Z,4.60
2018-11-26T03:19:31.369Z,4.50
2018-11-26T03:22:34.446Z,4.50
2018-11-26T03:25:37.544Z,4.60
2018-11-26T03:28:40.606Z,4.50
2018-11-26T03:31:43.723Z,4.60
2018-11-26T03:34:46.798Z,4.60
2018-11-26T03:37:49.858Z,4.50
2018-11-26T03:40:53.159Z,4.50
2018-11-26T03:43:56.202Z,4.60
2018-11-26T03:46:59.270Z,4.60
2018-11-26T03:50:02.354Z,4.50
2018-11-26T03:53:06.162Z,4.60
2018-11-26T03:56:09.234Z,4.60
2018-11-26T03:59:12.450Z,4.60
2018-11-26T04:02:15.582Z,4.60
2018-11-26T04:05:18.679Z,4.60
2018-11-26T04:08:21.730Z,4.60
2018-11-26T04:11:24.812Z,4.70
2018-11-26T04:14:27.867Z,4.70
2018-11-26T04:17:30.978Z,4.70
2018-11-26T04:20:34.398Z,4.70
2018-11-26T04:23:37.442Z,4.70
2018-11-26T04:26:40.515Z,4.70
2018-11-26T04:29:43.575Z,4.70
2018-11-26T04:32:46.633Z,4.70
2018-11-26T04:35:49.724Z,4.70
2018-11-26T04:38:52.783Z,4.70
2018-11-26T04:41:55.854Z,4.70
2018-11-26T04:44:58.924Z,4.60
2018-11-26T04:48:02.028Z,4.60
2018-11-26T04:51:05.271Z,4.60
2018-11-26T04:54:08.337Z,4.60
2018-11-26T04:57:11.398Z,4.60
2018-11-26T05:00:15.396Z,4.60
2018-11-26T05:03:18.394Z,4.60
2018-11-26T05:06:21.506Z,4.50
2018-11-26T05:09:24.574Z,4.50
2018-11-26T05:12:27.670Z,4.60
2018-11-26T05:15:30.719Z,4.50
2018-11-26T05:18:33.806Z,4.60
2018-11-26T05:21:36.858Z,4.70
2018-11-26T05:24:39.959Z,4.70
2018-11-26T05:27:43.015Z,4.70
2018-11-26T05:30:46.091Z,4.70
2018-11-26T05:33:49.175Z,4.70
2018-11-26T05:36:52.246Z,4.70
2018-11-26T05:39:55.294Z,4.70
2018-11-26T05:42:58.387Z,4.70
2018-11-26T05:46:01.455Z,4.70
2018-11-26T05:49:04.518Z,4.70
2018-11-26T05:52:07.602Z,4.70
2018-11-26T05:55:13.662Z,4.70
2018-11-26T05:58:16.761Z,4.70
2018-11-26T06:01:19.838Z,4.70
2018-11-26T06:04:22.894Z,4.70
2018-11-26T06:07:25.954Z,4.70
2018-11-26T06:10:29.042Z,4.70
2018-11-26T06:13:32.162Z,4.70
2018-11-26T06:16:36.438Z,4.70
2018-11-26T06:19:39.527Z,4.70
2018-11-26T06:22:43.859Z,4.70
2018-11-26T06:25:47.453Z,4.70
2018-11-26T06:28:50.507Z,4.70
2018-11-26T06:31:53.598Z,4.60
2018-11-26T06:34:56.653Z,4.60
2018-11-26T06:37:59.743Z,4.60
2018-11-26T06:41:02.839Z,4.60
2018-11-26T06:44:06.498Z,4.60
2018-11-26T06:47:09.571Z,4.60
2018-11-26T06:50:13.811Z,4.60
2018-11-26T06:53:16.880Z,4.60
2018-11-26T06:56:19.948Z,4.60
2018-11-26T06:59:23.012Z,4.60
2018-11-26T07:02:26.090Z,4.50
2018-11-26T07:05:29.171Z,4.50
2018-11-26T07:08:32.246Z,4.50
2018-11-26T07:11:35.642Z,4.40
2018-11-26T07:14:38.726Z,4.40
2018-11-26T07:17:41.877Z,4.50
2018-11-26T07:20:44.963Z,4.50
2018-11-26T07:23:48.031Z,4.50
2018-11-26T07:26:51.110Z,4.50
2018-11-26T07:29:54.229Z,4.50
2018-11-26T07:32:57.293Z,4.50
2018-11-26T07:36:00.391Z,4.50
2018-11-26T07:39:03.986Z,4.50
2018-11-26T07:42:07.498Z,4.50
2018-11-26T07:45:12.470Z,4.50
2018-11-26T07:48:15.548Z,4.60
2018-11-26T07:51:18.621Z,4.60
2018-11-26T07:54:21.697Z,4.70
2018-11-26T07:57:24.770Z,4.70
2018-11-26T08:00:27.839Z,4.70
2018-11-26T08:03:30.914Z,4.70
2018-11-26T08:06:34.012Z,4.80
2018-11-26T08:09:37.134Z,4.80
2018-11-26T08:12:40.219Z,4.80
2018-11-26T08:15:49.388Z,4.80
2018-11-26T08:18:52.619Z,4.90
2018-11-26T08:21:55.670Z,4.90
2018-11-26T08:24:58.756Z,5.00
2018-11-26T08:28:01.935Z,5.10
2018-11-26T08:31:05.408Z,5.10
2018-11-26T08:34:08.491Z,5.20
2018-11-26T08:37:16.612Z,5.20
2018-11-26T08:40:25.563Z,5.20
2018-11-26T08:43:34.627Z,5.10
2018-11-26T08:46:43.082Z,5.20
2018-11-26T08:49:46.290Z,5.20
2018-11-26T08:52:49.342Z,5.10
2018-11-26T08:55:52.435Z,5.20
2018-11-26T08:58:55.530Z,5.20
2018-11-26T09:02:00.543Z,5.10
2018-11-26T09:05:08.897Z,5.00
2018-11-26T09:08:11.989Z,4.90
2018-11-26T09:11:15.091Z,4.90
2018-11-26T09:14:18.194Z,4.90
2018-11-26T09:20:48.810Z,4.80
2018-11-26T09:23:51.872Z,4.80
2018-11-26T09:26:55.006Z,4.70
2018-11-26T09:29:58.095Z,4.80
2018-11-26T09:33:01.173Z,4.80
2018-11-26T09:36:04.241Z,4.90
2018-11-26T09:39:10.806Z,4.90
2018-11-26T09:42:13.894Z,4.90
2018-11-26T09:45:17.894Z,4.90
2018-11-26T09:48:20.960Z,4.90
2018-11-26T09:51:24.039Z,4.80
2018-11-26T09:54:27.099Z,4.60
2018-11-26T09:57:30.163Z,4.60
2018-11-26T10:00:33.218Z,4.70
2018-11-26T10:03:36.299Z,4.80
2018-11-26T10:06:41.395Z,4.80
2018-11-26T10:09:44.478Z,4.90
2018-11-26T10:12:47.539Z,4.90
2018-11-26T10:15:50.623Z,5.00
2018-11-26T10:18:53.703Z,5.10
2018-11-26T10:21:56.757Z,5.10
2018-11-26T10:25:05.765Z,5.00
2018-11-26T10:28:02.970Z,5.20
2018-11-26T10:31:06.043Z,5.20
2018-11-26T10:34:09.127Z,5.10
2018-11-26T10:37:12.206Z,5.20
2018-11-26T10:40:18.467Z,5.40
2018-11-26T10:43:21.522Z,5.30
2018-11-26T10:46:24.598Z,5.30
2018-11-26T10:49:27.654Z,5.20
2018-11-26T10:52:30.735Z,5.20
2018-11-26T10:55:34.994Z,5.30
2018-11-26T10:58:38.078Z,5.30
2018-11-26T11:01:44.419Z,5.30
2018-11-26T11:04:47.835Z,5.40
2018-11-26T11:07:50.598Z,5.40
2018-11-26T11:10:53.657Z,5.50
2018-11-26T11:13:56.750Z,5.40
2018-11-26T11:16:59.838Z,5.30
2018-11-26T11:20:03.403Z,5.20
2018-11-26T11:23:07.755Z,5.20
2018-11-26T11:26:10.829Z,5.20
2018-11-26T11:29:13.924Z,5.20
2018-11-26T11:32:17.007Z,5.20
2018-11-26T11:35:20.350Z,5.00
2018-11-26T11:38:23.423Z,5.00
2018-11-26T11:41:26.503Z,4.70
2018-11-26T11:44:29.604Z,4.60
2018-11-26T11:47:32.661Z,4.60
2018-11-26T11:50:35.763Z,4.60
2018-11-26T11:53:38.852Z,4.60
2018-11-26T11:56:41.952Z,4.60
2018-11-26T11:59:45.044Z,4.60
2018-11-26T12:02:48.123Z,4.60
2018-11-26T12:05:51.216Z,4.60
2018-11-26T12:08:54.269Z,4.60
2018-11-26T12:11:57.380Z,4.70
2018-11-26T12:15:00.440Z,4.60
2018-11-26T12:18:03.502Z,4.50
2018-11-26T12:21:06.589Z,4.40
2018-11-26T12:24:09.704Z,4.40
2018-11-26T12:27:12.800Z,4.30
2018-11-26T12:30:17.993Z,4.30
2018-11-26T12:33:21.138Z,4.30
2018-11-26T12:36:24.177Z,4.20
2018-11-26T12:39:27.236Z,4.30
2018-11-26T12:42:30.315Z,4.20
2018-11-26T12:45:34.223Z,4.10
2018-11-26T12:48:37.283Z,4.20
2018-11-26T12:51:40.365Z,4.20
2018-11-26T12:54:43.444Z,4.10
2018-11-26T12:57:47.562Z,4.00
2018-11-26T13:00:50.631Z,3.90
2018-11-26T13:03:53.708Z,4.00
2018-11-26T13:06:56.804Z,3.90
2018-11-26T13:09:59.904Z,3.90
2018-11-26T13:13:02.992Z,3.90
2018-11-26T13:16:06.107Z,3.80
2018-11-26T13:19:09.319Z,3.70
2018-11-26T13:22:12.433Z,3.70
2018-11-26T13:25:18.646Z,3.60
2018-11-26T13:28:21.745Z,3.70
2018-11-26T13:31:24.825Z,3.60
2018-11-26T13:34:27.891Z,3.60
2018-11-26T13:37:30.974Z,3.60
2018-11-26T13:40:34.063Z,3.70
2018-11-26T13:43:37.148Z,3.70
2018-11-26T13:46:40.233Z,3.70
2018-11-26T13:49:43.363Z,3.70
2018-11-26T13:52:46.417Z,3.80
2018-11-26T13:55:49.484Z,3.80
2018-11-26T13:58:52.808Z,3.80
2018-11-26T14:01:55.652Z,3.80
2018-11-26T14:04:58.745Z,3.80
2018-11-26T14:08:01.816Z,3.70
2018-11-26T14:11:04.947Z,3.70
2018-11-26T14:14:08.016Z,3.70
2018-11-26T14:17:11.112Z,3.60
2018-11-26T14:20:15.382Z,3.60
2018-11-26T14:23:18.457Z,3.50
2018-11-26T14:26:21.548Z,3.50
2018-11-26T14:29:24.632Z,3.50
2018-11-26T14:32:27.694Z,3.40
2018-11-26T14:35:30.784Z,3.30
2018-11-26T14:38:33.836Z,3.30
2018-11-26T14:41:36.924Z,3.40
2018-11-26T14:44:40.002Z,3.40
2018-11-26T14:47:43.554Z,3.40
2018-11-26T14:50:46.604Z,3.30
2018-11-26T14:53:49.691Z,3.30
2018-11-26T14:56:52.869Z,3.20
2018-11-26T14:59:56.040Z,3.20
2018-11-26T15:02:59.109Z,3.10
2018-11-26T15:06:02.197Z,3.00
2018-11-26T15:09:08.240Z,3.00
2018-11-26T15:12:11.319Z,3.10
2018-11-26T15:15:15.644Z,3.10
2018-11-26T15:18:18.739Z,3.10
2018-11-26T15:21:21.820Z,3.10
2018-11-26T15:24:24.895Z,3.10
2018-11-26T15:27:28.015Z,3.10
2018-11-26T15:30:31.111Z,3.10
2018-11-26T15:33:34.196Z,3.20
2018-11-26T15:36:37.274Z,3.20
2018-11-26T15:39:40.356Z,3.20
2018-11-26T15:42:43.468Z,3.20
2018-11-26T15:45:46.526Z,3.40
2018-11-26T15:48:49.606Z,3.40
2018-11-26T15:51:52.659Z,3.40
2018-11-26T15:54:55.746Z,3.40
2018-11-26T15:57:58.796Z,3.40
2018-11-26T16:01:01.863Z,3.40
2018-11-26T16:04:05.357Z,3.40
2018-11-26T16:07:08.453Z,3.40
2018-11-26T16:10:13.503Z,3.30
2018-11-26T16:13:16.676Z,3.20
2018-11-26T16:16:19.756Z,3.20
2018-11-26T16:19:22.856Z,3.30
2018-11-26T16:22:25.955Z,3.30
2018-11-26T16:25:29.044Z,3.20
2018-11-26T16:28:32.096Z,3.20
2018-11-26T16:31:35.176Z,3.20
2018-11-26T16:34:38.229Z,3.10
2018-11-26T16:37:41.308Z,3.10
2018-11-26T16:40:44.363Z,3.20
2018-11-26T16:43:47.460Z,3.30
2018-11-26T16:46:50.563Z,3.30
2018-11-26T16:49:53.639Z,3.30
2018-11-26T16:52:56.777Z,3.40
2018-11-26T16:55:59.835Z,3.40
2018-11-26T16:59:02.900Z,3.40
2018-11-26T17:02:05.956Z,3.30
2018-11-26T17:05:11.900Z,3.40
2018-11-26T17:08:15.640Z,3.40
2018-11-26T17:11:18.716Z,3.40
2018-11-26T17:14:21.780Z,3.40
2018-11-26T17:17:24.843Z,3.30
2018-11-26T17:20:27.983Z,3.20
2018-11-26T17:23:31.064Z,3.20
2018-11-26T17:26:34.127Z,3.20
2018-11-26T17:29:37.212Z,3.10
2018-11-26T17:32:40.541Z,3.00
2018-11-26T17:35:43.652Z,3.00
2018-11-26T17:38:46.721Z,2.90
2018-11-26T17:41:50.540Z,2.90
2018-11-26T17:44:53.623Z,2.90
2018-11-26T17:47:57.810Z,2.90
2018-11-26T17:51:00.903Z,2.90
2018-11-26T17:54:03.983Z,2.90
2018-11-26T17:57:07.040Z,2.90
2018-11-26T18:00:13.788Z,2.90
2018-11-26T18:03:17.084Z,3.00
2018-11-26T18:06:20.143Z,3.00
2018-11-26T18:09:23.240Z,2.90
2018-11-26T18:12:26.289Z,2.80
2018-11-26T18:15:29.383Z,2.80
2018-11-26T18:18:32.474Z,2.80
2018-11-26T18:21:35.565Z,2.90
2018-11-26T18:24:38.636Z,2.90
2018-11-26T18:27:46.943Z,2.90
2018-11-26T18:30:51.163Z,3.00
2018-11-26T18:33:54.255Z,3.00
2018-11-26T18:36:57.392Z,3.00
2018-11-26T18:40:00.487Z,3.00
2018-11-26T18:43:03.576Z,3.10
2018-11-26T18:46:06.660Z,3.10
2018-11-26T18:49:09.729Z,3.10
2018-11-26T18:52:12.808Z,3.10
2018-11-26T18:55:15.916Z,3.20
2018-11-26T18:58:19.020Z,3.20
2018-11-26T19:01:22.075Z,3.20
2018-11-26T19:04:25.165Z,3.20
2018-11-26T19:07:28.288Z,3.30
2018-11-26T19:10:33.179Z,3.20
2018-11-26T19:14:00.063Z,3.10
2018-11-26T19:17:03.109Z,3.10
2018-11-26T19:20:18.779Z,3.10
2018-11-26T19:23:22.282Z,3.00
2018-11-26T19:26:25.848Z,3.00
2018-11-26T19:29:28.468Z,3.00
2018-11-26T19:32:31.536Z,3.00
2018-11-26T19:35:34.628Z,3.00
2018-11-26T19:38:37.703Z,3.00
2018-11-26T19:41:40.804Z,2.90
2018-11-26T19:44:43.884Z,2.90
2018-11-26T19:47:47.093Z,2.90
2018-11-26T19:50:50.180Z,2.90
2018-11-26T19:53:53.275Z,2.90
2018-11-26T19:56:56.357Z,2.80
2018-11-26T19:59:59.449Z,2.90
2018-11-26T20:03:21.280Z,2.90
2018-11-26T20:06:25.167Z,2.90
2018-11-26T20:09:28.339Z,2.90
2018-11-26T20:12:31.412Z,2.90
2018-11-26T20:15:34.479Z,2.90
2018-11-26T20:18:37.567Z,3.00
2018-11-26T20:21:40.648Z,2.90
2018-11-26T20:24:43.755Z,2.90
2018-11-26T20:27:46.799Z,3.00
2018-11-26T20:30:49.916Z,2.90
2018-11-26T20:33:52.992Z,2.90
2018-11-26T20:36:56.096Z,2.90
2018-11-26T20:39:59.240Z,2.80
2018-11-26T20:43:02.359Z,2.80
2018-11-26T20:46:05.611Z,2.80
2018-11-26T20:49:09.268Z,2.90
2018-11-26T20:52:12.340Z,2.90
2018-11-26T20:55:19.731Z,2.80
2018-11-26T20:58:22.844Z,2.80
2018-11-26T21:01:25.949Z,2.80
2018-11-26T21:04:29.061Z,2.80
2018-11-26T21:07:32.124Z,2.90
2018-11-26T21:10:35.409Z,2.90
2018-11-26T21:13:38.640Z,2.90
2018-11-26T21:16:41.762Z,3.00
2018-11-26T21:19:49.609Z,3.00
2018-11-26T21:22:48.987Z,2.90
2018-11-26T21:25:52.455Z,2.90
2018-11-26T21:28:55.535Z,3.00
2018-11-26T21:31:58.624Z,2.90
2018-11-26T21:35:01.702Z,2.90
2018-11-26T21:38:05.906Z,2.90
2018-11-26T21:41:08.975Z,2.90
2018-11-26T21:44:12.072Z,2.80
2018-11-26T21:47:15.153Z,2.90
2018-11-26T21:50:18.239Z,2.80
2018-11-26T21:53:21.301Z,2.90
2018-11-26T21:56:24.803Z,2.90
2018-11-26T21:59:27.892Z,2.90
2018-11-26T22:02:30.970Z,2.90
2018-11-26T22:05:34.690Z,3.00
2018-11-26T22:08:38.391Z,2.90
2018-11-26T22:11:45.635Z,3.00
2018-11-26T22:14:48.711Z,2.90
2018-11-26T22:17:51.852Z,2.90
2018-11-26T22:20:54.908Z,2.80
2018-11-26T22:23:58.051Z,2.80
2018-11-26T22:27:01.054Z,2.70
2018-11-26T22:30:08.081Z,2.70
2018-11-26T22:33:11.199Z,2.70
2018-11-26T22:36:14.288Z,2.70
2018-11-26T22:39:17.396Z,2.80
2018-11-26T22:42:20.479Z,2.90
2018-11-26T22:45:25.430Z,2.90
2018-11-26T22:48:28.522Z,2.90
2018-11-26T22:51:31.620Z,2.80
2018-11-26T22:54:34.699Z,2.90
2018-11-26T22:57:37.756Z,2.90
2018-11-26T23:00:45.628Z,2.90
2018-11-26T23:03:48.695Z,2.90
2018-11-26T23:06:51.779Z,2.90
2018-11-26T23:09:54.844Z,2.90
2018-11-26T23:12:58.009Z,3.00
2018-11-26T23:16:01.084Z,3.00
2018-11-26T23:19:04.227Z,3.00
2018-11-26T23:22:07.343Z,3.00
2018-11-26T23:25:11.496Z,3.00
2018-11-26T23:28:14.593Z,2.90
2018-11-26T23:31:17.652Z,2.90
2018-11-26T23:34:20.719Z,2.90
2018-11-26T23:37:23.802Z,3.00
2018-11-26T23:40:26.863Z,3.00
2018-11-26T23:43:29.967Z,2.90
2018-11-26T23:46:33.070Z,3.00
2018-11-26T23:49:36.139Z,3.00
2018-11-26T23:52:39.657Z,2.90
2018-11-26T23:55:42.776Z,2.90
2018-11-26T23:58:45.835Z,2.90
